Time;durP1;ratioP1;P1;durP2;ratioP2;P2;SDS_P1;SDS_P2;PMS_P1;PMS_P2;Temp;Humidity;BMP_temperature;BMP_pressure;BME280_temperature;BME280_humidity;BME280_pressure;Samples;Min_cycle;Max_cycle;Signal;HPM_P1;HPM_P2
2023/04/26 00:01:56;;;;;;;20.85;11.90;;;4.10;65.90;;;;;;5037776;28;20132;-74
2023/04/26 00:04:22;;;;;;;18.67;11.43;;;4.10;65.60;;;;;;5044119;28;20033;-74
2023/04/26 00:06:48;;;;;;;22.40;13.25;;;4.10;65.90;;;;;;5045619;28;20104;-74
2023/04/26 00:09:14;;;;;;;26.38;13.60;;;4.10;66.00;;;;;;5036516;28;20105;-76
2023/04/26 00:11:39;;;;;;;22.92;12.23;;;4.00;65.50;;;;;;5026801;28;20086;-76
2023/04/26 00:14:05;;;;;;;23.65;13.23;;;4.00;65.30;;;;;;5032735;28;20033;-76
2023/04/26 00:16:30;;;;;;;22.48;11.15;;;4.00;65.80;;;;;;5034754;28;20037;-76
2023/04/26 00:18:56;;;;;;;23.23;12.60;;;4.00;65.50;;;;;;5036676;28;20113;-75
2023/04/26 00:21:22;;;;;;;19.85;11.20;;;4.00;66.20;;;;;;5031535;28;20053;-75
2023/04/26 00:23:47;;;;;;;19.40;11.98;;;4.00;65.90;;;;;;5021248;28;20033;-74
2023/04/26 00:26:13;;;;;;;22.35;11.50;;;4.00;65.80;;;;;;5035231;28;20458;-75
2023/04/26 00:28:38;;;;;;;20.60;11.60;;;4.00;66.40;;;;;;5035777;28;20048;-75
2023/04/26 00:31:04;;;;;;;17.20;11.40;;;3.90;66.70;;;;;;5033596;28;20022;-75
2023/04/26 00:33:30;;;;;;;24.52;12.85;;;3.90;66.40;;;;;;5024538;28;20034;-75
2023/04/26 00:35:55;;;;;;;24.90;12.35;;;3.90;66.80;;;;;;5035753;28;20028;-75
2023/04/26 00:38:24;;;;;;;24.23;12.88;;;3.90;66.80;;;;;;5035448;28;20038;-76
2023/04/26 00:40:50;;;;;;;29.83;14.63;;;3.80;66.90;;;;;;5034753;28;20034;-75
2023/04/26 00:43:15;;;;;;;18.40;11.15;;;3.80;66.70;;;;;;5051473;28;20037;-75
2023/04/26 00:45:41;;;;;;;23.33;12.50;;;3.80;66.70;;;;;;5023410;28;20044;-75
2023/04/26 00:48:06;;;;;;;24.58;12.35;;;3.80;66.30;;;;;;5051467;28;20037;-75
2023/04/26 00:50:32;;;;;;;16.08;10.95;;;3.70;66.20;;;;;;5033833;28;20211;-75
2023/04/26 00:52:58;;;;;;;19.60;12.93;;;3.70;66.60;;;;;;5035567;28;20091;-75
2023/04/26 00:55:26;;;;;;;24.70;13.75;;;3.60;66.60;;;;;;5036560;28;20029;-75
2023/04/26 00:57:51;;;;;;;25.13;12.75;;;3.60;66.50;;;;;;5026978;28;20034;-75
2023/04/26 01:00:17;;;;;;;26.42;12.63;;;3.50;66.10;;;;;;5033361;28;20165;-75
2023/04/26 01:02:43;;;;;;;23.67;12.75;;;3.50;65.70;;;;;;5035236;28;20033;-74
2023/04/26 01:05:09;;;;;;;29.60;14.35;;;3.50;65.90;;;;;;5035526;28;20406;-74
2023/04/26 01:07:36;;;;;;;22.90;12.93;;;3.40;66.40;;;;;;5033673;28;20111;-75
2023/04/26 01:10:05;;;;;;;24.50;13.00;;;3.30;65.90;;;;;;5035776;28;20030;-76
2023/04/26 01:12:31;;;;;;;20.65;12.30;;;3.30;66.40;;;;;;5035056;28;20029;-75
2023/04/26 01:14:59;;;;;;;21.95;12.02;;;3.20;66.40;;;;;;5035884;28;20029;-74
2023/04/26 01:17:24;;;;;;;23.65;12.73;;;3.20;65.90;;;;;;5035597;28;20049;-76
2023/04/26 01:19:50;;;;;;;23.85;13.30;;;3.20;65.60;;;;;;5051817;28;20433;-74
2023/04/26 01:22:16;;;;;;;30.63;13.80;;;3.20;65.00;;;;;;5035309;28;20026;-74
2023/04/26 01:24:45;;;;;;;29.60;14.73;;;3.10;65.20;;;;;;5034912;28;20032;-74
2023/04/26 01:27:11;;;;;;;30.08;15.32;;;3.20;64.90;;;;;;5034272;28;20056;-74
2023/04/26 01:29:37;;;;;;;32.38;14.20;;;3.10;65.10;;;;;;5035253;28;20017;-76
2023/04/26 01:32:02;;;;;;;25.42;12.85;;;3.10;65.20;;;;;;5031209;28;20026;-75
2023/04/26 01:34:28;;;;;;;25.88;13.05;;;3.10;64.90;;;;;;5027989;28;20026;-74
2023/04/26 01:36:54;;;;;;;31.48;14.73;;;3.10;64.40;;;;;;5034770;28;20068;-74
2023/04/26 01:39:19;;;;;;;20.80;13.45;;;3.20;64.30;;;;;;5033462;28;20025;-74
2023/04/26 01:41:45;;;;;;;25.60;13.82;;;3.20;64.40;;;;;;5033661;28;20033;-74
2023/04/26 01:44:10;;;;;;;25.60;14.20;;;3.30;64.30;;;;;;5034377;28;20034;-74
2023/04/26 01:46:36;;;;;;;21.30;12.52;;;3.30;63.90;;;;;;5031740;28;20025;-74
2023/04/26 01:49:02;;;;;;;25.35;13.32;;;3.30;63.70;;;;;;5032780;28;20082;-74
2023/04/26 01:51:27;;;;;;;22.13;12.27;;;3.30;64.30;;;;;;5032838;28;20330;-74
2023/04/26 01:53:53;;;;;;;20.08;12.95;;;3.30;64.30;;;;;;5032171;28;20029;-74
2023/04/26 01:56:19;;;;;;;26.75;13.27;;;3.20;64.60;;;;;;5048078;28;20017;-74
2023/04/26 01:58:45;;;;;;;28.67;13.68;;;3.20;64.90;;;;;;5031525;28;20455;-73
2023/04/26 02:01:11;;;;;;;20.08;12.15;;;3.10;65.20;;;;;;5028605;28;20029;-74
2023/04/26 02:03:36;;;;;;;28.85;15.10;;;3.00;65.00;;;;;;5032356;28;20029;-75
2023/04/26 02:06:03;;;;;;;29.02;15.40;;;3.00;65.10;;;;;;5039348;28;20104;-75
2023/04/26 02:08:28;;;;;;;30.52;15.05;;;3.00;64.80;;;;;;5040420;28;20021;-75
2023/04/26 02:10:54;;;;;;;28.88;15.52;;;3.00;64.10;;;;;;5035495;28;20026;-74
2023/04/26 02:13:20;;;;;;;30.20;14.50;;;3.00;64.10;;;;;;5039554;28;20418;-74
2023/04/26 02:15:47;;;;;;;29.40;14.07;;;3.00;64.40;;;;;;5033164;28;20025;-74
2023/04/26 02:18:14;;;;;;;23.90;12.82;;;2.90;64.80;;;;;;5032545;28;20060;-75
2023/04/26 02:20:44;;;;;;;21.23;12.40;;;2.90;65.20;;;;;;5050562;28;20106;-74
2023/04/26 02:23:11;;;;;;;22.52;11.63;;;2.80;65.10;;;;;;5039207;28;20079;-75
2023/04/26 02:25:37;;;;;;;26.75;14.65;;;2.80;64.60;;;;;;5039507;28;20361;-74
2023/04/26 02:28:06;;;;;;;20.98;13.07;;;2.70;64.80;;;;;;5039670;28;20029;-74
2023/04/26 02:30:31;;;;;;;24.23;12.77;;;2.60;64.50;;;;;;5035833;28;20057;-74
2023/04/26 02:32:57;;;;;;;20.40;13.20;;;2.60;64.80;;;;;;5039994;28;20111;-75
2023/04/26 02:35:23;;;;;;;27.55;12.93;;;2.50;65.00;;;;;;5037259;28;20132;-74
2023/04/26 02:37:51;;;;;;;24.83;13.30;;;2.40;64.70;;;;;;5032421;28;20109;-74
2023/04/26 02:40:18;;;;;;;18.10;12.30;;;2.40;64.50;;;;;;5031266;28;20029;-74
2023/04/26 02:42:44;;;;;;;27.77;14.57;;;2.30;64.70;;;;;;5039719;28;20100;-75
2023/04/26 02:45:10;;;;;;;31.10;14.23;;;2.30;64.20;;;;;;5049440;28;20032;-74
2023/04/26 02:47:37;;;;;;;28.10;13.80;;;2.30;63.90;;;;;;5038727;28;20037;-74
2023/04/26 02:50:06;;;;;;;36.58;15.75;;;2.30;63.80;;;;;;5037110;28;20034;-75
2023/04/26 02:52:33;;;;;;;25.73;13.88;;;2.20;64.40;;;;;;5037312;28;20030;-74
2023/04/26 02:54:59;;;;;;;28.00;13.48;;;2.10;64.60;;;;;;5038047;28;20031;-73
2023/04/26 02:57:25;;;;;;;23.75;13.30;;;2.10;64.40;;;;;;5039666;28;20369;-73
2023/04/26 02:59:54;;;;;;;22.00;13.10;;;2.00;64.50;;;;;;5034271;28;20022;-73
2023/04/26 03:02:20;;;;;;;23.10;12.57;;;2.00;64.20;;;;;;5039882;28;20100;-74
2023/04/26 03:04:49;;;;;;;24.05;12.50;;;1.90;64.80;;;;;;5037062;28;20101;-74
2023/04/26 03:07:14;;;;;;;27.00;14.48;;;1.90;63.80;;;;;;5034194;28;20071;-74
2023/04/26 03:09:40;;;;;;;30.50;15.70;;;1.90;63.60;;;;;;5040516;28;20029;-73
2023/04/26 03:12:06;;;;;;;28.00;15.10;;;2.00;63.30;;;;;;5041141;28;20027;-73
2023/04/26 03:14:32;;;;;;;28.65;13.52;;;1.90;63.70;;;;;;5042218;28;20033;-74
2023/04/26 03:16:58;;;;;;;26.75;13.95;;;1.90;63.60;;;;;;5034018;28;20287;-74
2023/04/26 03:19:24;;;;;;;30.63;13.50;;;1.90;63.80;;;;;;5029266;28;20022;-73
2023/04/26 03:21:50;;;;;;;27.02;14.63;;;1.90;63.70;;;;;;5034012;28;20433;-73
2023/04/26 03:24:16;;;;;;;27.27;13.60;;;1.90;63.80;;;;;;5030233;28;20022;-74
2023/04/26 03:26:42;;;;;;;23.08;13.25;;;1.80;64.10;;;;;;5023018;28;20040;-74
2023/04/26 03:29:07;;;;;;;27.67;13.93;;;1.70;63.90;;;;;;5017897;28;20022;-73
2023/04/26 05:04:01;;;;;;;81.68;32.00;;;1.50;61.50;;;;;;5101397;27;20401;-75
2023/04/26 05:17:51;;;;;;;53.05;29.33;;;2.10;61.40;;;;;;5106914;27;20411;-76
2023/04/26 05:20:16;;;;;;;60.80;28.85;;;2.20;61.40;;;;;;5101518;28;20025;-75
2023/04/26 05:22:42;;;;;;;61.45;30.88;;;2.40;61.40;;;;;;5097787;28;20024;-76
2023/04/26 05:25:09;;;;;;;54.95;28.30;;;2.60;61.50;;;;;;5101525;28;20027;-75
2023/04/26 05:27:36;;;;;;;62.42;31.52;;;2.70;61.50;;;;;;5092086;28;20036;-76
2023/04/26 05:30:05;;;;;;;46.78;25.77;;;2.80;61.40;;;;;;5099544;28;20476;-75
2023/04/26 05:32:31;;;;;;;40.67;22.50;;;2.90;61.30;;;;;;5111388;28;20032;-75
2023/04/26 05:34:57;;;;;;;39.70;22.63;;;2.90;61.20;;;;;;5094916;28;20027;-74
2023/04/26 05:37:23;;;;;;;37.95;22.30;;;2.90;61.20;;;;;;5092038;28;20384;-74
2023/04/26 05:39:48;;;;;;;39.33;21.55;;;3.00;61.00;;;;;;5093058;28;20056;-73
2023/04/26 05:42:14;;;;;;;34.33;21.23;;;3.20;61.10;;;;;;5099411;28;20020;-73
2023/04/26 05:44:40;;;;;;;52.10;26.58;;;3.40;61.20;;;;;;5107610;28;20028;-74
2023/04/26 05:47:05;;;;;;;40.15;21.10;;;3.50;61.30;;;;;;5099017;28;20023;-74
2023/04/26 05:49:31;;;;;;;43.72;22.20;;;3.50;61.10;;;;;;5111459;28;20024;-74
2023/04/26 05:51:59;;;;;;;34.25;19.38;;;3.70;61.00;;;;;;5095916;28;20028;-73
2023/04/26 05:54:25;;;;;;;32.88;19.27;;;3.80;61.10;;;;;;5111875;28;20020;-74
2023/04/26 05:56:51;;;;;;;29.73;18.98;;;4.00;61.20;;;;;;5113204;28;20038;-74
2023/04/26 05:59:17;;;;;;;28.27;15.98;;;4.10;61.10;;;;;;5113156;28;20024;-73
2023/04/26 06:01:42;;;;;;;30.02;17.48;;;4.10;60.90;;;;;;5095933;28;20016;-73
2023/04/26 06:04:08;;;;;;;27.27;15.40;;;4.10;60.90;;;;;;5098494;27;20020;-73
2023/04/26 06:06:33;;;;;;;31.63;18.30;;;3.90;60.80;;;;;;5110451;28;20078;-73
2023/04/26 06:08:59;;;;;;;29.27;17.73;;;4.00;60.60;;;;;;5111362;28;20373;-73
2023/04/26 06:11:25;;;;;;;29.17;16.50;;;4.00;60.60;;;;;;5109550;28;20235;-73
2023/04/26 06:13:51;;;;;;;26.52;15.85;;;4.10;60.90;;;;;;5112722;28;20043;-73
2023/04/26 06:16:16;;;;;;;25.52;13.88;;;4.10;60.70;;;;;;5105779;28;20329;-73
2023/04/26 06:18:42;;;;;;;33.97;16.80;;;4.10;60.90;;;;;;5107749;28;20024;-73
2023/04/26 06:21:10;;;;;;;25.65;16.98;;;4.20;60.80;;;;;;5107969;27;20058;-73
2023/04/26 06:23:36;;;;;;;24.95;14.93;;;4.20;61.40;;;;;;5111398;28;20034;-73
2023/04/26 06:26:01;;;;;;;25.73;15.05;;;4.30;61.30;;;;;;5112555;28;20032;-73
2023/04/26 06:28:27;;;;;;;27.85;14.40;;;4.60;60.60;;;;;;5092954;28;20023;-73
2023/04/26 06:30:52;;;;;;;23.58;14.10;;;4.90;62.00;;;;;;5097576;28;20028;-73
2023/04/26 06:33:18;;;;;;;31.90;17.40;;;4.60;64.90;;;;;;5098979;28;20028;-73
2023/04/26 06:35:43;;;;;;;21.45;14.15;;;4.60;65.40;;;;;;5097424;28;20042;-73
2023/04/26 06:38:11;;;;;;;28.05;15.85;;;4.60;67.60;;;;;;5093236;28;20051;-73
2023/04/26 06:40:37;;;;;;;31.50;16.23;;;4.60;73.00;;;;;;5078458;28;20025;-74
2023/04/26 06:43:02;;;;;;;26.15;16.17;;;4.60;76.70;;;;;;5077426;28;20333;-74
2023/04/26 06:45:28;;;;;;;28.98;15.95;;;4.70;78.30;;;;;;5077325;28;20069;-73
2023/04/26 06:47:54;;;;;;;24.73;12.90;;;5.00;81.30;;;;;;5078287;28;20107;-73
2023/04/26 06:50:20;;;;;;;17.42;9.32;;;5.50;81.80;;;;;;5078368;28;20448;-73
2023/04/26 06:52:45;;;;;;;21.13;10.30;;;5.70;92.00;;;;;;5078246;28;20025;-73
2023/04/26 06:55:11;;;;;;;17.48;10.82;;;6.00;94.00;;;;;;5077235;28;20028;-73
2023/04/26 06:57:36;;;;;;;20.52;11.15;;;6.40;96.10;;;;;;5078211;28;20467;-73
2023/04/26 07:00:03;;;;;;;22.17;10.55;;;6.40;98.00;;;;;;5076298;28;20032;-74
2023/04/26 07:02:29;;;;;;;19.60;10.90;;;6.60;98.00;;;;;;5077929;28;20419;-73
2023/04/26 07:04:54;;;;;;;19.88;10.38;;;6.50;98.00;;;;;;5078117;28;20021;-73
2023/04/26 07:07:20;;;;;;;20.42;10.02;;;6.60;98.00;;;;;;5077872;28;20029;-73
2023/04/26 07:09:46;;;;;;;18.52;9.52;;;6.90;98.00;;;;;;5078210;28;20035;-73
2023/04/26 07:12:15;;;;;;;20.20;10.40;;;7.30;98.00;;;;;;5077961;28;20058;-73
2023/04/26 07:14:42;;;;;;;22.33;9.75;;;7.80;98.00;;;;;;5077934;28;20048;-73
2023/04/26 07:17:10;;;;;;;15.50;7.75;;;8.10;98.00;;;;;;5076328;28;20044;-73
2023/04/26 07:19:36;;;;;;;17.17;8.60;;;8.10;96.20;;;;;;5077794;28;20024;-73
2023/04/26 07:22:02;;;;;;;15.43;9.52;;;8.50;95.40;;;;;;5078571;28;20428;-73
2023/04/26 07:24:28;;;;;;;22.05;10.90;;;8.40;95.20;;;;;;5077766;28;20021;-73
2023/04/26 07:26:53;;;;;;;17.85;9.18;;;8.10;95.40;;;;;;5085651;28;20024;-74
2023/04/26 07:29:22;;;;;;;21.75;9.07;;;8.10;96.00;;;;;;5098065;28;20028;-72
2023/04/26 07:31:48;;;;;;;19.88;7.95;;;8.20;95.70;;;;;;5092610;28;20035;-72
2023/04/26 07:34:13;;;;;;;17.52;8.70;;;8.40;94.40;;;;;;5077580;28;20024;-72
2023/04/26 07:36:39;;;;;;;16.13;8.63;;;8.70;94.40;;;;;;5076490;28;20040;-72
2023/04/26 07:39:05;;;;;;;16.13;7.85;;;8.90;94.40;;;;;;5076560;28;20035;-72
2023/04/26 07:41:31;;;;;;;13.68;7.88;;;9.00;92.90;;;;;;5077306;28;20029;-72
2023/04/26 07:43:59;;;;;;;16.33;7.88;;;8.50;93.00;;;;;;5077248;28;20032;-71
2023/04/26 07:46:25;;;;;;;15.63;7.25;;;8.60;92.80;;;;;;5079983;28;20052;-72
2023/04/26 07:48:50;;;;;;;14.30;7.13;;;9.20;90.60;;;;;;5094911;28;20079;-72
2023/04/26 07:51:16;;;;;;;18.23;7.57;;;9.90;89.60;;;;;;5092314;28;20040;-72
2023/04/26 07:53:42;;;;;;;15.02;7.28;;;10.80;87.60;;;;;;5097633;28;20054;-72
2023/04/26 07:56:08;;;;;;;15.95;8.13;;;11.50;84.70;;;;;;5094072;28;20431;-72
2023/04/26 07:58:37;;;;;;;16.08;7.95;;;11.70;84.50;;;;;;5077132;28;20112;-72
2023/04/26 08:01:03;;;;;;;11.20;5.53;;;12.40;83.50;;;;;;5075647;28;20056;-71
2023/04/26 08:03:29;;;;;;;12.20;5.63;;;12.90;80.10;;;;;;5085594;28;20358;-71
2023/04/26 08:05:55;;;;;;;13.00;5.80;;;13.40;77.90;;;;;;5096038;28;20036;-71
2023/04/26 08:08:21;;;;;;;12.85;5.28;;;13.20;78.40;;;;;;5087687;28;20081;-73
2023/04/26 08:10:47;;;;;;;10.30;5.32;;;12.90;77.50;;;;;;5095036;28;20031;-72
2023/04/26 08:13:13;;;;;;;13.10;4.88;;;13.30;76.80;;;;;;5097015;28;20028;-72
2023/04/26 08:15:39;;;;;;;10.13;4.70;;;14.10;74.40;;;;;;5094151;28;20301;-72
2023/04/26 08:18:05;;;;;;;14.13;6.50;;;14.90;72.50;;;;;;5090502;28;20024;-72
2023/04/26 08:20:31;;;;;;;11.57;7.40;;;15.20;72.50;;;;;;5097325;28;20084;-72
2023/04/26 08:22:57;;;;;;;15.50;8.40;;;14.80;74.00;;;;;;5096846;28;20016;-72
2023/04/26 08:25:24;;;;;;;11.23;6.78;;;14.00;76.90;;;;;;5094735;28;20042;-72
2023/04/26 08:27:50;;;;;;;15.13;7.63;;;13.50;76.80;;;;;;5094713;28;20436;-72
2023/04/26 08:30:15;;;;;;;17.65;7.90;;;12.90;78.90;;;;;;5095457;28;20032;-71
2023/04/26 08:32:41;;;;;;;15.52;8.38;;;12.00;81.40;;;;;;5096610;28;20024;-72
2023/04/26 08:35:08;;;;;;;17.45;8.18;;;11.60;82.40;;;;;;5094515;28;20028;-72
2023/04/26 08:37:34;;;;;;;19.40;9.13;;;11.30;82.90;;;;;;5095174;28;20032;-72
2023/04/26 08:40:00;;;;;;;12.77;7.20;;;10.70;84.40;;;;;;5096583;28;20478;-72
2023/04/26 08:42:27;;;;;;;15.20;8.10;;;10.90;85.40;;;;;;5096612;28;20024;-72
2023/04/26 08:44:53;;;;;;;15.90;7.55;;;11.90;82.80;;;;;;5096647;28;20341;-72
2023/04/26 08:47:33;;;;;;;14.48;6.57;;;12.20;81.60;;;;;;5081114;28;20024;-72
2023/04/26 08:50:02;;;;;;;16.17;8.48;;;12.90;78.50;;;;;;5094082;28;20020;-72
2023/04/26 08:52:30;;;;;;;16.15;7.43;;;13.10;78.10;;;;;;5096139;28;20035;-72
2023/04/26 08:54:59;;;;;;;15.80;7.68;;;13.00;78.00;;;;;;5107035;28;20370;-72
2023/04/26 08:57:25;;;;;;;16.02;6.68;;;12.70;78.60;;;;;;5095348;28;20435;-72
2023/04/26 08:59:52;;;;;;;10.48;5.60;;;13.80;76.10;;;;;;5096245;28;20107;-72
2023/04/26 09:02:20;;;;;;;11.65;6.07;;;15.00;72.40;;;;;;5092903;28;20032;-72
2023/04/26 09:04:46;;;;;;;9.98;5.63;;;16.30;71.00;;;;;;5094821;28;20028;-72
2023/04/26 09:07:19;;;;;;;11.90;6.65;;;15.70;71.40;;;;;;5090425;28;20029;-72
2023/04/26 09:09:50;;;;;;;13.18;6.53;;;14.20;74.60;;;;;;5081211;28;20064;-72
2023/04/26 09:12:21;;;;;;;18.67;8.57;;;13.10;78.40;;;;;;5096577;28;20316;-72
2023/04/26 09:14:47;;;;;;;13.75;7.47;;;12.00;80.60;;;;;;5095957;28;20055;-72
2023/04/26 09:17:31;;;;;;;15.43;7.72;;;11.70;82.20;;;;;;5093314;28;20040;-72
2023/04/26 09:20:00;;;;;;;;;;;12.50;80.10;;;;;;5094568;28;20043;-72
2023/04/26 09:22:34;;;;;;;12.30;7.07;;;12.60;78.50;;;;;;5095068;28;19911;-72
2023/04/26 09:25:02;;;;;;;13.15;6.22;;;12.60;80.80;;;;;;5096075;28;20027;-72
2023/04/26 09:27:36;;;;;;;12.70;6.65;;;12.70;78.70;;;;;;5094567;28;20024;-72
2023/04/26 09:30:10;;;;;;;;;;;13.50;76.00;;;;;;5115719;28;20102;-73
2023/04/26 09:32:52;;;;;;;12.68;7.65;;;13.40;76.70;;;;;;5095871;28;19908;-72
2023/04/26 09:35:40;;;;;;;19.73;7.30;;;13.50;76.00;;;;;;5094814;28;20024;-72
2023/04/26 09:38:07;;;;;;;15.27;7.47;;;12.60;76.80;;;;;;5095886;28;20028;-72
2023/04/26 09:40:35;;;;;;;14.90;7.03;;;12.40;77.80;;;;;;5092877;28;20031;-72
2023/04/26 09:43:06;;;;;;;12.40;6.35;;;12.60;78.90;;;;;;5075604;28;20025;-72
2023/04/26 09:45:42;;;;;;;14.50;6.95;;;12.50;78.90;;;;;;5083383;28;20020;-72
2023/04/26 09:48:21;;;;;;;13.18;6.25;;;11.70;78.50;;;;;;5096802;28;20326;-73
2023/04/26 09:50:48;;;;;;;10.77;6.00;;;11.80;79.90;;;;;;5090880;28;20024;-73
2023/04/26 09:53:35;;;;;;;10.20;6.05;;;12.90;76.30;;;;;;5075603;28;20028;-72
2023/04/26 09:56:17;;;;;;;12.00;6.05;;;14.10;76.20;;;;;;5075518;28;20317;-73
2023/04/26 09:58:46;;;;;;;11.18;5.70;;;13.80;73.90;;;;;;5086162;28;20031;-73
2023/04/26 10:01:14;;;;;;;11.52;5.72;;;13.00;75.20;;;;;;5086177;28;20481;-73
2023/04/26 10:03:40;;;;;;;11.82;6.20;;;12.50;77.50;;;;;;5095186;28;20021;-72
2023/04/26 10:06:06;;;;;;;13.65;6.10;;;12.20;76.70;;;;;;5099437;28;20017;-72
2023/04/26 10:08:32;;;;;;;9.55;4.40;;;12.60;76.00;;;;;;5098231;28;20039;-72
2023/04/26 10:10:58;;;;;;;9.85;5.13;;;12.90;76.90;;;;;;5094116;28;20042;-72
2023/04/26 10:13:24;;;;;;;9.52;4.93;;;13.80;75.60;;;;;;5078252;28;20032;-72
2023/04/26 10:15:52;;;;;;;8.65;4.97;;;14.40;71.60;;;;;;5076410;28;20045;-72
2023/04/26 10:18:18;;;;;;;11.20;5.00;;;14.50;71.10;;;;;;5079001;28;20074;-72
2023/04/26 10:20:47;;;;;;;11.55;5.45;;;15.30;71.00;;;;;;5094821;28;20103;-72
2023/04/26 10:23:20;;;;;;;9.85;4.97;;;15.10;70.40;;;;;;5077718;28;20016;-72
2023/04/26 10:25:48;;;;;;;7.57;4.10;;;14.30;72.90;;;;;;5078646;28;20020;-72
2023/04/26 10:28:14;;;;;;;11.80;5.05;;;14.30;71.30;;;;;;5078747;28;20324;-72
2023/04/26 10:30:57;;;;;;;9.57;5.45;;;15.00;70.90;;;;;;5077381;28;20427;-72
2023/04/26 10:33:24;;;;;;;10.35;3.95;;;15.40;71.80;;;;;;5078555;28;20025;-72
2023/04/26 10:36:13;;;;;;;9.02;4.28;;;16.70;69.60;;;;;;5081521;28;20154;-72
2023/04/26 10:39:00;;;;;;;11.05;4.68;;;16.60;67.00;;;;;;5096436;28;20051;-72
2023/04/26 10:41:33;;;;;;;8.93;4.00;;;15.70;68.80;;;;;;5098581;28;20447;-72
2023/04/26 10:44:43;;;;;;;9.32;3.83;;;14.80;69.60;;;;;;5098679;28;20409;-72
2023/04/26 10:47:33;;;;;;;8.63;4.15;;;15.40;71.20;;;;;;5095290;28;20042;-72
2023/04/26 10:50:02;;;;;;;9.38;4.20;;;15.50;67.60;;;;;;5077373;28;20036;-72
2023/04/26 10:52:29;;;;;;;8.65;3.67;;;14.50;66.70;;;;;;5077425;28;20440;-72
2023/04/26 10:54:58;;;;;;;9.38;3.50;;;14.40;69.60;;;;;;5093330;28;20039;-72
2023/04/26 10:57:55;;;;;;;6.82;3.40;;;15.10;68.60;;;;;;5096971;28;20450;-72
2023/04/26 11:00:30;;;;;;;9.45;3.50;;;15.40;66.10;;;;;;5089527;28;20371;-72
2023/04/26 11:03:03;;;;;;;7.45;3.63;;;15.30;65.50;;;;;;5078288;28;20016;-72
2023/04/26 11:05:54;;;;;;;7.97;3.78;;;14.70;65.80;;;;;;5078744;28;20021;-72
2023/04/26 11:08:30;;;;;;;8.63;3.90;;;14.20;68.30;;;;;;5081626;28;20107;-72
2023/04/26 11:11:09;;;;;;;10.32;4.10;;;14.20;69.00;;;;;;5098300;28;20074;-72
2023/04/26 11:13:37;;;;;;;10.52;3.95;;;14.40;68.20;;;;;;5089734;28;20021;-72
2023/04/26 11:16:14;;;;;;;10.85;3.80;;;14.40;69.80;;;;;;5076438;28;20128;-72
2023/04/26 11:18:41;;;;;;;7.32;3.55;;;14.70;69.20;;;;;;5082355;28;20033;-72
2023/04/26 11:21:07;;;;;;;6.78;3.40;;;14.90;70.20;;;;;;5077861;28;20353;-72
2023/04/26 11:23:34;;;;;;;7.95;3.35;;;14.80;67.80;;;;;;5090775;28;20024;-72
2023/04/26 11:26:03;;;;;;;12.13;4.25;;;15.00;67.90;;;;;;5096800;28;20493;-72
2023/04/26 11:28:30;;;;;;;10.38;3.65;;;14.30;67.80;;;;;;5096580;28;20028;-72
2023/04/26 11:30:56;;;;;;;13.32;4.05;;;13.90;69.70;;;;;;5096688;28;20030;-72
2023/04/26 11:33:22;;;;;;;8.60;3.83;;;13.80;68.60;;;;;;5085516;28;20107;-72
2023/04/26 11:35:52;;;;;;;8.35;3.90;;;13.80;69.60;;;;;;5077324;28;20120;-72
2023/04/26 11:38:21;;;;;;;7.28;3.55;;;14.10;69.70;;;;;;5086438;28;20059;-72
2023/04/26 11:40:58;;;;;;;7.68;3.25;;;14.10;70.60;;;;;;5097276;28;20425;-79
2023/04/26 11:43:33;;;;;;;8.90;3.75;;;14.50;67.40;;;;;;5085164;28;20162;-72
2023/04/26 11:46:00;;;;;;;6.93;3.22;;;13.80;67.80;;;;;;5094506;28;20352;-72
2023/04/26 11:48:27;;;;;;;7.28;3.40;;;13.30;68.80;;;;;;5096594;28;20051;-72
2023/04/26 11:50:52;;;;;;;6.45;3.45;;;13.30;68.90;;;;;;5097398;28;20035;-72
2023/04/26 11:53:21;;;;;;;7.07;3.83;;;14.20;70.00;;;;;;5088533;28;20032;-72
2023/04/26 11:55:47;;;;;;;7.95;3.22;;;15.00;67.10;;;;;;5093728;28;20036;-72
2023/04/26 11:58:13;;;;;;;8.20;3.63;;;14.80;65.70;;;;;;5082316;28;20036;-72
2023/04/26 12:01:00;;;;;;;7.10;3.00;;;15.00;65.60;;;;;;5075718;28;20016;-72
2023/04/26 12:03:36;;;;;;;8.85;3.67;;;14.90;65.30;;;;;;5094168;28;20100;-72
2023/04/26 12:06:08;;;;;;;8.75;3.25;;;14.70;65.30;;;;;;5096066;28;20027;-72
2023/04/26 12:08:33;;;;;;;6.80;3.03;;;14.20;65.80;;;;;;5078180;28;20290;-72
2023/04/26 12:11:00;;;;;;;6.45;3.10;;;14.30;69.60;;;;;;5076866;28;20039;-72
2023/04/26 12:13:27;;;;;;;6.68;3.10;;;15.60;67.30;;;;;;5076328;28;20054;-72
2023/04/26 12:15:53;;;;;;;5.82;2.72;;;16.50;64.10;;;;;;5092334;28;20044;-72
2023/04/26 12:18:19;;;;;;;5.53;2.72;;;17.00;64.10;;;;;;5081784;28;20093;-72
2023/04/26 12:20:45;;;;;;;10.00;3.20;;;17.50;63.00;;;;;;5076725;28;20317;-72
2023/04/26 12:23:15;;;;;;;6.80;3.03;;;17.30;63.30;;;;;;5076394;28;20024;-72
2023/04/26 12:25:52;;;;;;;6.03;3.00;;;15.10;64.30;;;;;;5090892;28;20024;-71
2023/04/26 12:28:18;;;;;;;7.15;2.95;;;13.90;67.20;;;;;;5095769;28;20107;-71
2023/04/26 12:30:43;;;;;;;6.40;2.85;;;13.90;68.90;;;;;;5095300;28;20031;-71
2023/04/26 12:33:10;;;;;;;5.60;2.97;;;14.30;67.90;;;;;;5084026;28;20150;-72
2023/04/26 12:35:35;;;;;;;8.15;3.08;;;15.20;67.50;;;;;;5096688;28;20335;-71
2023/04/26 12:38:01;;;;;;;4.75;2.35;;;15.90;64.40;;;;;;5095221;28;20039;-72
2023/04/26 12:40:27;;;;;;;8.93;3.22;;;16.60;65.30;;;;;;5096610;28;20024;-72
2023/04/26 12:42:54;;;;;;;7.60;2.65;;;16.80;63.70;;;;;;5080395;28;20046;-73
2023/04/26 12:45:21;;;;;;;6.20;3.10;;;16.30;63.90;;;;;;5073767;28;20035;-73
2023/04/26 12:47:47;;;;;;;6.45;2.70;;;16.00;64.20;;;;;;5075948;28;20029;-72
2023/04/26 12:50:14;;;;;;;9.93;3.08;;;15.50;65.30;;;;;;5093087;28;20492;-73
2023/04/26 12:52:42;;;;;;;5.50;3.00;;;16.00;65.80;;;;;;5092412;28;20024;-73
2023/04/26 12:55:08;;;;;;;5.68;3.03;;;16.30;64.10;;;;;;5076121;28;20321;-72
2023/04/26 12:57:43;;;;;;;7.93;3.08;;;16.50;62.20;;;;;;5075944;28;20325;-72
2023/04/26 13:00:16;;;;;;;5.90;2.63;;;17.30;62.80;;;;;;5079900;28;20023;-72
2023/04/26 13:02:42;;;;;;;7.40;2.90;;;17.30;63.10;;;;;;5091567;28;20037;-73
2023/04/26 13:05:09;;;;;;;6.22;2.78;;;17.90;62.00;;;;;;5076493;28;20024;-72
2023/04/26 13:07:36;;;;;;;8.13;2.80;;;16.90;61.00;;;;;;5094558;28;20332;-73
2023/04/26 13:10:03;;;;;;;7.90;2.40;;;17.00;61.50;;;;;;5096193;28;20023;-72
2023/04/26 13:12:29;;;;;;;7.13;2.65;;;17.40;62.50;;;;;;5095434;28;20028;-73
2023/04/26 13:14:55;;;;;;;6.32;2.85;;;17.50;61.50;;;;;;5096142;28;20028;-72
2023/04/26 13:17:23;;;;;;;7.25;2.95;;;16.40;61.40;;;;;;5094583;28;20321;-72
2023/04/26 13:19:51;;;;;;;8.52;2.60;;;16.10;62.50;;;;;;5096220;28;20024;-72
2023/04/26 13:22:18;;;;;;;9.05;2.90;;;16.30;63.40;;;;;;5096069;28;20431;-72
2023/04/26 13:24:43;;;;;;;7.97;2.83;;;16.20;63.20;;;;;;5090740;28;20297;-72
2023/04/26 13:27:12;;;;;;;7.00;3.13;;;15.50;63.30;;;;;;5075687;28;20036;-72
2023/04/26 13:29:38;;;;;;;8.27;3.10;;;15.40;64.60;;;;;;5075803;28;20333;-72
2023/04/26 13:32:04;;;;;;;6.82;3.42;;;15.00;64.70;;;;;;5073848;28;20320;-72
2023/04/26 13:34:29;;;;;;;8.43;3.10;;;14.40;65.60;;;;;;5075633;28;20033;-72
2023/04/26 13:36:56;;;;;;;8.23;3.13;;;14.60;69.10;;;;;;5074680;28;20035;-72
2023/04/26 13:39:23;;;;;;;6.28;2.90;;;14.90;67.20;;;;;;5086691;28;20063;-72
2023/04/26 13:41:49;;;;;;;8.07;2.20;;;15.90;65.20;;;;;;5098918;28;20297;-72
2023/04/26 13:44:15;;;;;;;9.00;3.33;;;16.20;64.70;;;;;;5099971;28;20458;-72
2023/04/26 13:46:44;;;;;;;6.18;2.40;;;16.20;65.70;;;;;;5098591;28;20028;-72
2023/04/26 13:49:10;;;;;;;7.68;3.42;;;16.50;63.60;;;;;;5098873;28;20057;-72
2023/04/26 13:51:36;;;;;;;8.60;2.92;;;17.40;64.40;;;;;;5089305;28;20021;-72
2023/04/26 13:54:02;;;;;;;6.32;2.30;;;19.00;62.10;;;;;;5078620;28;20306;-72
2023/04/26 13:56:28;;;;;;;7.75;2.30;;;18.70;59.20;;;;;;5079443;28;20035;-72
2023/04/26 13:58:57;;;;;;;4.82;1.80;;;18.20;60.20;;;;;;5079301;28;20025;-72
2023/04/26 14:01:22;;;;;;;5.13;1.88;;;18.50;59.20;;;;;;5078236;28;20117;-72
2023/04/26 14:03:48;;;;;;;5.70;2.00;;;18.90;58.90;;;;;;5079435;28;20032;-72
2023/04/26 14:06:13;;;;;;;4.80;2.13;;;18.40;59.30;;;;;;5079110;28;20028;-72
2023/04/26 14:08:39;;;;;;;7.68;2.80;;;17.70;59.90;;;;;;5079284;28;20461;-72
2023/04/26 14:11:06;;;;;;;9.52;2.35;;;16.90;61.90;;;;;;5078978;28;20043;-72
2023/04/26 14:13:32;;;;;;;7.00;2.33;;;17.10;62.50;;;;;;5079098;28;20405;-72
2023/04/26 14:15:58;;;;;;;5.53;2.40;;;17.10;63.10;;;;;;5077742;28;20055;-72
2023/04/26 14:18:24;;;;;;;7.38;2.35;;;16.70;63.40;;;;;;5078945;28;20033;-72
2023/04/26 14:20:50;;;;;;;7.15;2.28;;;17.50;62.90;;;;;;5095939;28;20440;-72
2023/04/26 14:23:16;;;;;;;7.10;2.25;;;19.10;59.00;;;;;;5099229;28;20047;-72
2023/04/26 14:25:41;;;;;;;6.20;2.60;;;19.20;58.60;;;;;;5098787;28;20115;-72
2023/04/26 14:28:07;;;;;;;6.40;3.00;;;17.80;60.30;;;;;;5094991;28;20378;-72